Flight Track Log - Related Links

Times and Time Zones

All times are in EST time to prevent confusion due to time zone crossing. See the N441JB flight status page for this flight to view local times or setup timezone preferences in your user account.

Time Position Orientation Groundspeed Altitude Reporting Facility
EST Latitude Longitude Course Direction KTS MPH feet Rate Location/Type
Wed 02:18:45 PM 33.9500 -117.6330 40° Northeast 216 249 2,500  Level
Wed 02:19:45 PM 34.0000 -117.5830 32° Northeast 213 245 5,400 2,513 Climbing C
Wed 02:20:42 PM 34.0458 -117.5480 33° Northeast 247 284 7,400 1,897 Climbing C
Wed 02:21:42 PM 34.1028 -117.5040 36° Northeast 247 284 9,100 1,050 Climbing C
Wed 02:22:42 PM 34.1661 -117.4490 39° Northeast 291 335 9,500 1,500 Climbing C
Wed 02:23:42 PM 34.2272 -117.3900 38° Northeast 256 295 12,100 2,100 Climbing C
Wed 02:24:42 PM 34.2797 -117.3410 37° Northeast 286 329 13,700 1,500 Climbing C
Wed 02:25:42 PM 34.3389 -117.2860 38° Northeast 276 318 15,100 1,600 Climbing C
Wed 02:26:42 PM 34.3914 -117.2360 39° Northeast 268 308 16,900 1,300 Climbing C
Wed 02:27:42 PM 34.4506 -117.1770 39° Northeast 261 300 17,700 300 Climbing C
Wed 02:28:42 PM 34.5200 -117.1090 39° Northeast 282 325 17,500 -50 Descending D
Wed 02:29:42 PM 34.5892 -117.0400 41° Northeast 305 351 17,600 100 Climbing C
Wed 02:30:42 PM 34.6525 -116.9720 41° Northeast 311 358 17,700  Climbing C
Wed 02:31:42 PM 34.7197 -116.9000 45° Northeast 311 358 17,600 -50 Descending D
Wed 02:32:42 PM 34.7828 -116.8240 43° Northeast 311 358 17,600 -50 Level
Wed 02:33:42 PM 34.8478 -116.7490 42° Northeast 316 364 17,500 -100 Descending D
Wed 02:34:42 PM 34.9150 -116.6760 44° Northeast 316 364 17,400  Descending D
Wed 02:35:42 PM 34.9778 -116.6030 41° Northeast 316 364 17,500 50 Climbing C
Wed 02:36:42 PM 35.0469 -116.5300 42° Northeast 316 364 17,500 50 Level
Wed 02:37:42 PM 35.1119 -116.4590 43° Northeast 316 364 17,600 50 Climbing C
Wed 02:38:42 PM 35.1789 -116.3830 43° Northeast 316 364 17,600 -50 Level
Wed 02:39:42 PM 35.2436 -116.3090 42° Northeast 316 364 17,500  Descending D
Wed 02:40:43 PM 35.3106 -116.2360 46° Northeast 316 364 17,600  Climbing C
Wed 02:41:42 PM 35.3733 -116.1570 44° Northeast 316 364 17,500  Descending D
Wed 02:42:42 PM 35.4378 -116.0810 42° Northeast 316 364 17,600  Climbing C
Wed 02:43:43 PM 35.5047 -116.0060 44° Northeast 316 364 17,500  Descending D
Wed 02:44:43 PM 35.5692 -115.9300 40° Northeast 316 364 17,600 79 Climbing C
Wed 02:44:59 PM 35.5964 -115.9020 43° Northeast 326 375 17,600  Level
Wed 02:45:43 PM 35.6464 -115.8450 39° Northeast 321 369 17,600 82 Level
Wed 02:46:12 PM 35.6794 -115.8120 43° Northeast 324 373 17,700  Climbing C
Wed 02:46:42 PM 35.7128 -115.7730 38° Northeast 321 369 17,600 -400 Descending D
Wed 02:47:12 PM 35.7442 -115.7430 40° Northeast 317 365 17,300  Descending D
Wed 02:47:43 PM 35.7814 -115.7040 45° Northeast 321 369 17,600 295 Climbing C
Wed 02:48:13 PM 35.8086 -115.6710 39° Northeast 316 364 17,600 102 Level
Wed 02:48:42 PM 35.8458 -115.6340 38° Northeast 309 356 17,700  Climbing C
Wed 02:49:20 PM 35.8853 -115.5960 43° Northeast 307 353 17,600 -100 Descending D
Wed 02:49:42 PM 35.9103 -115.5670 39° Northeast 304 350 17,600  Level
Wed 02:50:21 PM 35.9519 -115.5260 40° Northeast 307 353 17,600 -200 Level
Wed 02:50:42 PM 35.9767 -115.5000 36° Northeast 304 350 17,400  Descending D
Wed 02:51:22 PM 36.0203 -115.4610 39° Northeast 311 358 17,600 197 Climbing C
Wed 02:51:43 PM 36.0453 -115.4360 30° Northeast 304 350 17,600 -218 Level
Wed 02:52:17 PM 36.0867 -115.4070 41° Northeast 305 351 17,400 -102 Descending D
Wed 02:52:42 PM 36.1158 -115.3760 34° Northeast 304 350 17,500 141 Climbing C
Wed 02:53:42 PM 36.1864 -115.3160 37° Northeast 304 350 17,600 100 Climbing C
Wed 02:54:42 PM 36.2528 -115.2540 36° Northeast 304 350 17,700  Climbing C
Wed 02:55:42 PM 36.3211 -115.1930 36° Northeast 304 350 17,600  Descending D
Wed 02:56:42 PM 36.3894 -115.1310 36° Northeast 304 350 17,700 50 Climbing C
Wed 02:57:42 PM 36.4556 -115.0710 36° Northeast 304 350 17,700 -50 Level
Wed 02:58:42 PM 36.5261 -115.0070 36° Northeast 309 356 17,600 -50 Descending D
Wed 02:59:42 PM 36.5964 -114.9440 37° Northeast 309 356 17,600  Level
Wed 03:00:42 PM 36.6625 -114.8810 34° Northeast 309 356 17,600 -100 Level
Wed 03:01:42 PM 36.7308 -114.8230 33° Northeast 304 350 17,400 -110 Descending D
Wed 03:02:31 PM 36.7867 -114.7770 30° Northeast 309 356 17,400 162 Level
Wed 03:03:33 PM 36.8589 -114.7240 29° Northeast 304 350 17,700 98 Climbing C
Wed 03:04:34 PM 36.9331 -114.6730 30° Northeast 303 349 17,600  Descending D
Wed 03:05:36 PM 37.0072 -114.6200 33° Northeast 305 351 17,700 48 Climbing C
Wed 03:06:38 PM 37.0894 -114.5530 36° Northeast 310 357 17,700 -49 Level
Wed 03:07:39 PM 37.1614 -114.4880 35° Northeast 313 360 17,600 -49 Descending D
Wed 03:08:41 PM 37.2342 -114.4230 35° Northeast 315 362 17,600 48 Level
Wed 03:09:43 PM 37.3061 -114.3590 37° Northeast 314 361 17,700  Climbing C
Wed 03:10:44 PM 37.3769 -114.2920 38° Northeast 313 360 17,600  Descending D
Wed 03:11:46 PM 37.4478 -114.2230 35° Northeast 315 362 17,700  Climbing C
Wed 03:12:48 PM 37.5203 -114.1590 34° Northeast 314 361 17,600 48 Descending D
Wed 03:13:50 PM 37.5928 -114.0980 34° Northeast 311 358 17,800  Climbing C
Wed 03:14:51 PM 37.6661 -114.0350 36° Northeast 310 357 17,600 -146 Descending D
Wed 03:15:53 PM 37.7392 -113.9690 39° Northeast 313 360 17,500 -48 Descending D
Wed 03:16:55 PM 37.8106 -113.8970 39° Northeast 317 365 17,500  Level
Wed 03:17:56 PM 37.8808 -113.8240 38° Northeast 320 368 17,500 49 Level
Wed 03:18:58 PM 37.9525 -113.7530 38° Northeast 321 369 17,600 48 Climbing C
Wed 03:20:00 PM 38.0247 -113.6820 36° Northeast 321 369 17,600 49 Level
Wed 03:21:01 PM 38.0989 -113.6130 35° Northeast 322 371 17,700  Climbing C
Wed 03:22:03 PM 38.1733 -113.5460 34° Northeast 323 372 17,600  Descending D
Wed 03:23:04 PM 38.2492 -113.4800 34° Northeast 323 372 17,700 49 Climbing C
Wed 03:24:06 PM 38.3397 -113.4010 36° Northeast 324 373 17,700 97 Level
Wed 03:25:08 PM 38.4139 -113.3320 36° Northeast 323 372 17,900 98 Climbing C
Wed 03:26:09 PM 38.4886 -113.2630 36° Northeast 324 373 17,900 -98 Level
Wed 03:27:11 PM 38.5628 -113.1930 37° Northeast 325 374 17,700 -195 Descending D
Wed 03:28:12 PM 38.6361 -113.1210 40° Northeast 325 374 17,500  Descending D
Wed 03:29:14 PM 38.7075 -113.0440 39° Northeast 326 375 17,700 98 Climbing C
Wed 03:30:15 PM 38.7803 -112.9670 39° Northeast 328 377 17,700  Level
Wed 03:31:17 PM 38.8531 -112.8910 40° Northeast 330 380 17,700 49 Level
Wed 03:32:18 PM 38.9250 -112.8140 38° Northeast 331 381 17,800 -195 Climbing C
Wed 03:33:20 PM 38.9992 -112.7390 36° Northeast 334 384 17,300 -48 Descending D
Wed 03:34:22 PM 39.0747 -112.6690 35° Northeast 332 382 17,700 98 Climbing C
Wed 03:35:23 PM 39.1514 -112.5990 39° Northeast 332 382 17,500 -98 Descending D
Wed 03:36:25 PM 39.2289 -112.5180 40° Northeast 329 379 17,500 48 Level
Wed 03:37:27 PM 39.3003 -112.4410 38° Northeast 329 379 17,600  Climbing C
Wed 03:38:28 PM 39.3736 -112.3680 36° Northeast 329 379 17,500 -49 Descending D
Wed 03:39:30 PM 39.4489 -112.2970 37° Northeast 332 382 17,500  Level
Wed 03:40:31 PM 39.5225 -112.2240 38° Northeast 332 382 17,500  Level
Wed 03:41:33 PM 39.5961 -112.1500 38° Northeast 331 381 17,500 -146 Level
Wed 03:42:34 PM 39.6692 -112.0760 37° Northeast 331 381 17,200 -1,024 Descending D
Wed 03:43:36 PM 39.7442 -112.0030 37° Northeast 333 383 15,400 -1,902 Descending D
Wed 03:44:37 PM 39.8186 -111.9290 37° Northeast 334 384 13,300 -2,066 Descending D

Login

Don't have an account? Register now (free) for customized features, flight alerts, and more!